Apple Creek, MO

10:54 PM CST on January 24, 2015 (GMT -0600)
Northwest Jackson | Change Station
CLOSE
Current Station
Personal Weather Station
Location: Jackson, MO
Elevation: 465 ft
Nearby Weather Stations

Elev 465 ft 37.39 °N, 89.68 °W | Updated 3 seconds ago

Partly Cloudy
Partly Cloudy
41.0 °F
Feels Like 41 °F
N
0.0
Wind Variable Wind from SE
Gusts 0.0 mph

Today
High -- | Low -- °F
--% Chance of Precip.
Yesterday
High -- | Low -- °F
Precip. -- in
7:08 AM 5:13 PM
Waxing Crescent, 28% visible
Pressure 29.83 in
Visibility 10.0 miles
Clouds Clear
Windchill 41 °F
Dew Point 25 °F
Humidity 53%
Rainfall 0.00 in
Snow Depth Not available.
UV 0 out of 12
Pollen .10 out of 12
Air Quality Not available.
Flu Activity Not available.
METAR KCGI 250353Z AUTO 00000KT 10SM CLR 04/00 A2982 RMK AO2 SLP099 T00390000 TSNO

More Conditions Fewer Conditions

Pressure 29.83 in
Visibility 10.0 miles
Clouds Clear
Windchill 41 °F
Dew Point 25 °F
Humidity 53%
Rainfall 0.00 in
Snow Depth Not available.
UV 0 out of 12
Pollen .10 out of 12
Air Quality Not available.
Flu Activity Not available.
METAR KCGI 250353Z AUTO 00000KT 10SM CLR 04/00 A2982 RMK AO2 SLP099 T00390000 TSNO

More Conditions Fewer Conditions

10-Day Weather Forecast

Almanac

Astronomy

Jan. 24, 2015 Rise Set
Actual Time
Civil Twilight
Nautical Twilight
Astronomical Twilight
Moon
Length of Visible Light
Length of Day
Tomorrow will be .
, % of the Moon is Illuminated

Today's Extremes

State Highs State Lows

Community

WunderPhotos

Upload Photos

1,789,839 photos uploaded!

WunderBlogs® & News

Nearby

Air Quality

  Air Quality AQ Index Pollutant
Not available.

Snow Depth

Station Depth Elevation

Earthquake Activity

City Distance Mag. Time & Date
Minimum magnitude displayed is 2.5.

Coastal Water Temperatures

Place Temperature

Nearby Weather Stations